sensor_id;sensor_type;location;lat;lon;timestamp;P1;durP1;ratioP1;P2;durP2;ratioP2
21647;SDS011;10985;54.182;7.890;2023-08-31T00:00:41;3.53;;;2.45;;
21647;SDS011;10985;54.182;7.890;2023-08-31T00:03:07;5.53;;;2.67;;
21647;SDS011;10985;54.182;7.890;2023-08-31T00:05:36;5.68;;;3.05;;
21647;SDS011;10985;54.182;7.890;2023-08-31T00:08:02;4.20;;;2.15;;
21647;SDS011;10985;54.182;7.890;2023-08-31T00:10:28;2.05;;;1.85;;
21647;SDS011;10985;54.182;7.890;2023-08-31T00:12:54;4.47;;;1.83;;
21647;SDS011;10985;54.182;7.890;2023-08-31T00:15:20;4.78;;;2.20;;
21647;SDS011;10985;54.182;7.890;2023-08-31T00:17:45;3.65;;;2.10;;
21647;SDS011;10985;54.182;7.890;2023-08-31T00:20:11;3.72;;;2.20;;
21647;SDS011;10985;54.182;7.890;2023-08-31T00:22:37;4.38;;;2.05;;
21647;SDS011;10985;54.182;7.890;2023-08-31T00:25:03;5.10;;;2.30;;
21647;SDS011;10985;54.182;7.890;2023-08-31T00:27:30;4.40;;;2.50;;
21647;SDS011;10985;54.182;7.890;2023-08-31T00:29:56;5.32;;;2.42;;
21647;SDS011;10985;54.182;7.890;2023-08-31T00:32:22;6.05;;;2.30;;
21647;SDS011;10985;54.182;7.890;2023-08-31T00:34:49;5.40;;;2.35;;
21647;SDS011;10985;54.182;7.890;2023-08-31T00:37:15;7.50;;;2.30;;
21647;SDS011;10985;54.182;7.890;2023-08-31T00:39:41;5.40;;;2.50;;
21647;SDS011;10985;54.182;7.890;2023-08-31T00:42:06;8.75;;;2.35;;
21647;SDS011;10985;54.182;7.890;2023-08-31T00:44:32;3.47;;;2.35;;
21647;SDS011;10985;54.182;7.890;2023-08-31T00:46:58;5.53;;;2.50;;
21647;SDS011;10985;54.182;7.890;2023-08-31T00:49:24;8.48;;;2.60;;
21647;SDS011;10985;54.182;7.890;2023-08-31T00:51:49;11.48;;;2.55;;
21647;SDS011;10985;54.182;7.890;2023-08-31T00:54:16;4.15;;;2.20;;
21647;SDS011;10985;54.182;7.890;2023-08-31T00:56:43;9.20;;;2.78;;
21647;SDS011;10985;54.182;7.890;2023-08-31T00:59:08;9.32;;;2.55;;
21647;SDS011;10985;54.182;7.890;2023-08-31T01:01:37;9.30;;;2.10;;
21647;SDS011;10985;54.182;7.890;2023-08-31T01:07:04;28.27;;;4.05;;
21647;SDS011;10985;54.182;7.890;2023-08-31T01:09:53;29.90;;;4.22;;
21647;SDS011;10985;54.182;7.890;2023-08-31T01:12:30;22.38;;;3.80;;
21647;SDS011;10985;54.182;7.890;2023-08-31T01:15:00;17.90;;;3.42;;
21647;SDS011;10985;54.182;7.890;2023-08-31T01:17:29;14.30;;;3.03;;
21647;SDS011;10985;54.182;7.890;2023-08-31T01:19:58;16.23;;;2.80;;
21647;SDS011;10985;54.182;7.890;2023-08-31T01:22:30;13.18;;;2.72;;
21647;SDS011;10985;54.182;7.890;2023-08-31T01:25:05;23.55;;;2.90;;
21647;SDS011;10985;54.182;7.890;2023-08-31T01:27:34;26.33;;;3.72;;
21647;SDS011;10985;54.182;7.890;2023-08-31T01:30:00;26.02;;;3.42;;
21647;SDS011;10985;54.182;7.890;2023-08-31T01:32:26;17.95;;;2.72;;
21647;SDS011;10985;54.182;7.890;2023-08-31T01:34:51;13.35;;;2.35;;
21647;SDS011;10985;54.182;7.890;2023-08-31T01:37:20;14.60;;;2.97;;
21647;SDS011;10985;54.182;7.890;2023-08-31T01:39:55;11.98;;;2.55;;
21647;SDS011;10985;54.182;7.890;2023-08-31T01:42:28;11.80;;;2.70;;
21647;SDS011;10985;54.182;7.890;2023-08-31T01:44:56;11.10;;;2.83;;
21647;SDS011;10985;54.182;7.890;2023-08-31T01:47:23;7.03;;;2.40;;
21647;SDS011;10985;54.182;7.890;2023-08-31T01:49:50;5.50;;;2.00;;
21647;SDS011;10985;54.182;7.890;2023-08-31T01:52:16;11.40;;;2.17;;
21647;SDS011;10985;54.182;7.890;2023-08-31T01:54:41;8.60;;;2.10;;
21647;SDS011;10985;54.182;7.890;2023-08-31T01:57:07;16.27;;;2.50;;
21647;SDS011;10985;54.182;7.890;2023-08-31T01:59:33;13.88;;;2.00;;
21647;SDS011;10985;54.182;7.890;2023-08-31T02:01:59;8.57;;;1.90;;
21647;SDS011;10985;54.182;7.890;2023-08-31T02:04:24;9.80;;;2.13;;
21647;SDS011;10985;54.182;7.890;2023-08-31T02:06:50;13.52;;;2.15;;
21647;SDS011;10985;54.182;7.890;2023-08-31T02:09:15;17.60;;;2.15;;
21647;SDS011;10985;54.182;7.890;2023-08-31T02:11:41;6.80;;;1.67;;
21647;SDS011;10985;54.182;7.890;2023-08-31T02:14:06;5.95;;;1.67;;
21647;SDS011;10985;54.182;7.890;2023-08-31T02:16:32;17.42;;;1.70;;
21647;SDS011;10985;54.182;7.890;2023-08-31T02:18:58;10.15;;;2.63;;
21647;SDS011;10985;54.182;7.890;2023-08-31T02:21:24;6.32;;;1.52;;
21647;SDS011;10985;54.182;7.890;2023-08-31T02:23:49;4.15;;;1.35;;
21647;SDS011;10985;54.182;7.890;2023-08-31T02:26:15;5.68;;;1.88;;
21647;SDS011;10985;54.182;7.890;2023-08-31T02:28:40;2.70;;;1.30;;
21647;SDS011;10985;54.182;7.890;2023-08-31T02:31:06;4.68;;;1.20;;
21647;SDS011;10985;54.182;7.890;2023-08-31T02:33:31;2.65;;;1.23;;
21647;SDS011;10985;54.182;7.890;2023-08-31T02:35:57;4.03;;;1.55;;
21647;SDS011;10985;54.182;7.890;2023-08-31T02:38:23;4.75;;;1.25;;
21647;SDS011;10985;54.182;7.890;2023-08-31T02:40:48;6.32;;;2.22;;
21647;SDS011;10985;54.182;7.890;2023-08-31T02:43:14;5.00;;;2.22;;
21647;SDS011;10985;54.182;7.890;2023-08-31T02:45:40;6.90;;;1.60;;
21647;SDS011;10985;54.182;7.890;2023-08-31T02:48:09;7.15;;;1.80;;
21647;SDS011;10985;54.182;7.890;2023-08-31T02:50:35;4.75;;;1.80;;
21647;SDS011;10985;54.182;7.890;2023-08-31T02:53:01;6.28;;;2.30;;
21647;SDS011;10985;54.182;7.890;2023-08-31T02:55:27;3.60;;;1.77;;
21647;SDS011;10985;54.182;7.890;2023-08-31T02:57:52;6.63;;;1.70;;
21647;SDS011;10985;54.182;7.890;2023-08-31T03:00:19;11.82;;;1.80;;
21647;SDS011;10985;54.182;7.890;2023-08-31T03:02:47;4.75;;;1.67;;
21647;SDS011;10985;54.182;7.890;2023-08-31T03:05:13;5.88;;;1.70;;
21647;SDS011;10985;54.182;7.890;2023-08-31T03:07:38;7.90;;;1.92;;
21647;SDS011;10985;54.182;7.890;2023-08-31T03:10:04;5.50;;;2.35;;
21647;SDS011;10985;54.182;7.890;2023-08-31T03:12:30;4.03;;;1.33;;
21647;SDS011;10985;54.182;7.890;2023-08-31T03:14:56;5.38;;;1.55;;
21647;SDS011;10985;54.182;7.890;2023-08-31T03:17:21;3.55;;;1.58;;
21647;SDS011;10985;54.182;7.890;2023-08-31T03:19:47;6.20;;;1.20;;
21647;SDS011;10985;54.182;7.890;2023-08-31T03:22:12;3.60;;;1.38;;
21647;SDS011;10985;54.182;7.890;2023-08-31T03:24:38;7.72;;;1.63;;
21647;SDS011;10985;54.182;7.890;2023-08-31T03:27:03;12.38;;;2.30;;
21647;SDS011;10985;54.182;7.890;2023-08-31T03:29:29;8.40;;;2.10;;
21647;SDS011;10985;54.182;7.890;2023-08-31T03:31:56;6.70;;;1.55;;
21647;SDS011;10985;54.182;7.890;2023-08-31T03:34:22;4.85;;;1.40;;
21647;SDS011;10985;54.182;7.890;2023-08-31T03:36:48;4.30;;;1.27;;
21647;SDS011;10985;54.182;7.890;2023-08-31T03:39:15;8.07;;;1.30;;
21647;SDS011;10985;54.182;7.890;2023-08-31T03:41:40;5.28;;;1.27;;
21647;SDS011;10985;54.182;7.890;2023-08-31T03:44:06;11.32;;;1.70;;
21647;SDS011;10985;54.182;7.890;2023-08-31T03:46:31;6.13;;;1.40;;
21647;SDS011;10985;54.182;7.890;2023-08-31T03:48:57;6.55;;;1.40;;
21647;SDS011;10985;54.182;7.890;2023-08-31T03:51:22;3.90;;;1.20;;
21647;SDS011;10985;54.182;7.890;2023-08-31T03:53:48;3.63;;;1.20;;
21647;SDS011;10985;54.182;7.890;2023-08-31T03:56:13;4.22;;;1.58;;
21647;SDS011;10985;54.182;7.890;2023-08-31T03:58:39;3.22;;;1.23;;
21647;SDS011;10985;54.182;7.890;2023-08-31T04:01:04;4.22;;;1.58;;
21647;SDS011;10985;54.182;7.890;2023-08-31T04:03:30;6.40;;;1.50;;
21647;SDS011;10985;54.182;7.890;2023-08-31T04:05:56;4.47;;;1.58;;
21647;SDS011;10985;54.182;7.890;2023-08-31T04:08:21;3.50;;;1.42;;
21647;SDS011;10985;54.182;7.890;2023-08-31T04:10:47;4.13;;;1.30;;
21647;SDS011;10985;54.182;7.890;2023-08-31T04:13:12;2.63;;;1.20;;
21647;SDS011;10985;54.182;7.890;2023-08-31T04:15:38;5.57;;;1.45;;
21647;SDS011;10985;54.182;7.890;2023-08-31T04:18:03;3.40;;;1.40;;
21647;SDS011;10985;54.182;7.890;2023-08-31T04:20:30;6.40;;;1.80;;
21647;SDS011;10985;54.182;7.890;2023-08-31T04:22:55;4.25;;;1.58;;
21647;SDS011;10985;54.182;7.890;2023-08-31T04:25:21;4.78;;;1.50;;
21647;SDS011;10985;54.182;7.890;2023-08-31T04:27:46;4.00;;;1.40;;
21647;SDS011;10985;54.182;7.890;2023-08-31T04:30:12;3.50;;;1.65;;
21647;SDS011;10985;54.182;7.890;2023-08-31T04:32:37;5.75;;;1.58;;
21647;SDS011;10985;54.182;7.890;2023-08-31T04:35:03;3.30;;;1.33;;
21647;SDS011;10985;54.182;7.890;2023-08-31T04:37:33;3.83;;;1.10;;
21647;SDS011;10985;54.182;7.890;2023-08-31T04:39:58;2.33;;;1.40;;
21647;SDS011;10985;54.182;7.890;2023-08-31T04:42:24;7.53;;;1.75;;
21647;SDS011;10985;54.182;7.890;2023-08-31T04:44:49;12.90;;;2.40;;
21647;SDS011;10985;54.182;7.890;2023-08-31T04:47:15;7.63;;;1.77;;
21647;SDS011;10985;54.182;7.890;2023-08-31T04:49:40;8.35;;;1.60;;
21647;SDS011;10985;54.182;7.890;2023-08-31T04:52:06;8.07;;;1.52;;
21647;SDS011;10985;54.182;7.890;2023-08-31T04:54:32;5.53;;;1.60;;
21647;SDS011;10985;54.182;7.890;2023-08-31T04:56:57;1.88;;;1.23;;
21647;SDS011;10985;54.182;7.890;2023-08-31T04:59:23;1.73;;;1.27;;
21647;SDS011;10985;54.182;7.890;2023-08-31T05:01:48;1.65;;;1.30;;
21647;SDS011;10985;54.182;7.890;2023-08-31T05:04:14;3.60;;;1.40;;
21647;SDS011;10985;54.182;7.890;2023-08-31T05:06:39;6.00;;;1.45;;
21647;SDS011;10985;54.182;7.890;2023-08-31T05:09:05;5.78;;;1.80;;
21647;SDS011;10985;54.182;7.890;2023-08-31T05:11:31;4.15;;;1.40;;
21647;SDS011;10985;54.182;7.890;2023-08-31T05:13:56;2.78;;;1.02;;
21647;SDS011;10985;54.182;7.890;2023-08-31T05:16:22;3.08;;;1.10;;
21647;SDS011;10985;54.182;7.890;2023-08-31T05:18:48;4.20;;;1.17;;
21647;SDS011;10985;54.182;7.890;2023-08-31T05:21:14;3.72;;;1.42;;
21647;SDS011;10985;54.182;7.890;2023-08-31T05:23:39;5.22;;;1.10;;
21647;SDS011;10985;54.182;7.890;2023-08-31T05:26:05;2.15;;;1.27;;
21647;SDS011;10985;54.182;7.890;2023-08-31T05:28:31;1.92;;;1.50;;
21647;SDS011;10985;54.182;7.890;2023-08-31T05:30:57;4.35;;;1.30;;
21647;SDS011;10985;54.182;7.890;2023-08-31T05:33:27;6.78;;;1.20;;
21647;SDS011;10985;54.182;7.890;2023-08-31T05:35:53;3.45;;;1.73;;
21647;SDS011;10985;54.182;7.890;2023-08-31T05:38:19;3.67;;;1.58;;
21647;SDS011;10985;54.182;7.890;2023-08-31T05:40:45;4.53;;;1.30;;
21647;SDS011;10985;54.182;7.890;2023-08-31T05:43:14;3.67;;;1.33;;
21647;SDS011;10985;54.182;7.890;2023-08-31T05:45:40;2.45;;;1.23;;
21647;SDS011;10985;54.182;7.890;2023-08-31T05:48:07;3.75;;;1.70;;
21647;SDS011;10985;54.182;7.890;2023-08-31T05:50:33;3.35;;;1.20;;
21647;SDS011;10985;54.182;7.890;2023-08-31T05:52:58;6.28;;;1.52;;
21647;SDS011;10985;54.182;7.890;2023-08-31T05:55:24;2.45;;;1.50;;
21647;SDS011;10985;54.182;7.890;2023-08-31T05:57:49;1.52;;;1.25;;
21647;SDS011;10985;54.182;7.890;2023-08-31T06:00:15;1.50;;;1.30;;
21647;SDS011;10985;54.182;7.890;2023-08-31T06:02:41;2.97;;;1.23;;
21647;SDS011;10985;54.182;7.890;2023-08-31T06:05:09;2.63;;;1.60;;
21647;SDS011;10985;54.182;7.890;2023-08-31T06:07:37;4.90;;;1.63;;
21647;SDS011;10985;54.182;7.890;2023-08-31T06:10:03;4.43;;;1.85;;
21647;SDS011;10985;54.182;7.890;2023-08-31T06:12:29;2.65;;;2.10;;
21647;SDS011;10985;54.182;7.890;2023-08-31T06:14:55;2.83;;;1.58;;
21647;SDS011;10985;54.182;7.890;2023-08-31T06:17:20;2.25;;;1.65;;
21647;SDS011;10985;54.182;7.890;2023-08-31T06:19:46;5.13;;;1.20;;
21647;SDS011;10985;54.182;7.890;2023-08-31T06:22:11;4.70;;;1.23;;
21647;SDS011;10985;54.182;7.890;2023-08-31T06:24:37;1.77;;;1.30;;
21647;SDS011;10985;54.182;7.890;2023-08-31T06:27:03;3.17;;;1.45;;
21647;SDS011;10985;54.182;7.890;2023-08-31T06:29:28;5.38;;;1.48;;
21647;SDS011;10985;54.182;7.890;2023-08-31T06:31:54;5.65;;;1.83;;
21647;SDS011;10985;54.182;7.890;2023-08-31T06:34:19;4.05;;;1.52;;
21647;SDS011;10985;54.182;7.890;2023-08-31T06:36:45;4.88;;;2.30;;
21647;SDS011;10985;54.182;7.890;2023-08-31T06:39:10;6.63;;;2.50;;
21647;SDS011;10985;54.182;7.890;2023-08-31T06:41:36;10.23;;;2.40;;
21647;SDS011;10985;54.182;7.890;2023-08-31T06:44:02;8.27;;;1.90;;
21647;SDS011;10985;54.182;7.890;2023-08-31T06:46:29;5.22;;;1.90;;
21647;SDS011;10985;54.182;7.890;2023-08-31T06:48:54;5.10;;;1.83;;
21647;SDS011;10985;54.182;7.890;2023-08-31T06:51:20;4.10;;;1.60;;
21647;SDS011;10985;54.182;7.890;2023-08-31T06:53:46;3.80;;;1.70;;
21647;SDS011;10985;54.182;7.890;2023-08-31T06:56:11;4.07;;;1.70;;
21647;SDS011;10985;54.182;7.890;2023-08-31T06:58:37;6.32;;;1.50;;
21647;SDS011;10985;54.182;7.890;2023-08-31T07:01:05;6.47;;;1.67;;
21647;SDS011;10985;54.182;7.890;2023-08-31T07:03:31;6.72;;;2.20;;
21647;SDS011;10985;54.182;7.890;2023-08-31T07:05:56;8.15;;;1.83;;
21647;SDS011;10985;54.182;7.890;2023-08-31T07:08:22;5.65;;;1.80;;
21647;SDS011;10985;54.182;7.890;2023-08-31T07:10:49;5.72;;;1.92;;
21647;SDS011;10985;54.182;7.890;2023-08-31T07:13:15;7.38;;;1.90;;
21647;SDS011;10985;54.182;7.890;2023-08-31T07:15:41;9.20;;;2.22;;
21647;SDS011;10985;54.182;7.890;2023-08-31T07:18:06;11.45;;;1.75;;
21647;SDS011;10985;54.182;7.890;2023-08-31T07:20:32;5.53;;;1.80;;
21647;SDS011;10985;54.182;7.890;2023-08-31T07:22:58;9.10;;;2.05;;
21647;SDS011;10985;54.182;7.890;2023-08-31T07:25:24;6.22;;;1.80;;
21647;SDS011;10985;54.182;7.890;2023-08-31T07:27:50;7.15;;;1.95;;
21647;SDS011;10985;54.182;7.890;2023-08-31T07:30:16;6.70;;;1.75;;
21647;SDS011;10985;54.182;7.890;2023-08-31T07:32:41;11.70;;;1.52;;
21647;SDS011;10985;54.182;7.890;2023-08-31T07:35:07;11.30;;;1.88;;
21647;SDS011;10985;54.182;7.890;2023-08-31T07:37:32;6.25;;;1.30;;
21647;SDS011;10985;54.182;7.890;2023-08-31T07:39:59;4.47;;;1.70;;
21647;SDS011;10985;54.182;7.890;2023-08-31T07:42:24;6.43;;;1.60;;
21647;SDS011;10985;54.182;7.890;2023-08-31T07:44:50;7.57;;;2.10;;
21647;SDS011;10985;54.182;7.890;2023-08-31T07:47:15;9.55;;;1.83;;
21647;SDS011;10985;54.182;7.890;2023-08-31T07:49:41;7.68;;;1.65;;
21647;SDS011;10985;54.182;7.890;2023-08-31T07:52:07;4.75;;;1.42;;
21647;SDS011;10985;54.182;7.890;2023-08-31T07:54:32;4.55;;;1.30;;
21647;SDS011;10985;54.182;7.890;2023-08-31T07:56:58;4.40;;;1.67;;
21647;SDS011;10985;54.182;7.890;2023-08-31T07:59:24;4.85;;;1.63;;
21647;SDS011;10985;54.182;7.890;2023-08-31T08:01:49;5.13;;;1.52;;
21647;SDS011;10985;54.182;7.890;2023-08-31T08:04:15;19.25;;;2.80;;
21647;SDS011;10985;54.182;7.890;2023-08-31T08:06:40;15.27;;;2.85;;
21647;SDS011;10985;54.182;7.890;2023-08-31T08:09:06;11.50;;;3.33;;
21647;SDS011;10985;54.182;7.890;2023-08-31T08:11:31;17.80;;;2.88;;
21647;SDS011;10985;54.182;7.890;2023-08-31T08:13:59;12.73;;;2.15;;
21647;SDS011;10985;54.182;7.890;2023-08-31T08:16:24;10.13;;;1.92;;
21647;SDS011;10985;54.182;7.890;2023-08-31T08:18:50;11.60;;;2.15;;
21647;SDS011;10985;54.182;7.890;2023-08-31T08:21:15;12.05;;;2.20;;
21647;SDS011;10985;54.182;7.890;2023-08-31T08:23:41;12.35;;;2.33;;
21647;SDS011;10985;54.182;7.890;2023-08-31T08:26:06;8.82;;;1.75;;
21647;SDS011;10985;54.182;7.890;2023-08-31T08:28:32;7.65;;;1.60;;
21647;SDS011;10985;54.182;7.890;2023-08-31T08:31:00;7.47;;;1.60;;
21647;SDS011;10985;54.182;7.890;2023-08-31T08:33:29;4.63;;;1.65;;
21647;SDS011;10985;54.182;7.890;2023-08-31T08:35:56;4.13;;;1.60;;
21647;SDS011;10985;54.182;7.890;2023-08-31T08:38:22;6.13;;;1.40;;
21647;SDS011;10985;54.182;7.890;2023-08-31T08:40:47;4.90;;;1.52;;
21647;SDS011;10985;54.182;7.890;2023-08-31T08:43:13;6.75;;;2.33;;
21647;SDS011;10985;54.182;7.890;2023-08-31T08:45:39;6.43;;;1.75;;
21647;SDS011;10985;54.182;7.890;2023-08-31T08:48:07;7.45;;;1.80;;
21647;SDS011;10985;54.182;7.890;2023-08-31T08:50:33;10.80;;;2.03;;
21647;SDS011;10985;54.182;7.890;2023-08-31T08:53:01;10.60;;;2.42;;
21647;SDS011;10985;54.182;7.890;2023-08-31T08:55:27;11.27;;;2.42;;
21647;SDS011;10985;54.182;7.890;2023-08-31T08:57:53;12.32;;;2.53;;
21647;SDS011;10985;54.182;7.890;2023-08-31T09:00:18;6.10;;;1.90;;
21647;SDS011;10985;54.182;7.890;2023-08-31T09:02:44;20.58;;;2.10;;
21647;SDS011;10985;54.182;7.890;2023-08-31T09:05:10;16.20;;;2.20;;
21647;SDS011;10985;54.182;7.890;2023-08-31T09:07:36;19.45;;;2.10;;
21647;SDS011;10985;54.182;7.890;2023-08-31T09:10:01;3.28;;;1.58;;
21647;SDS011;10985;54.182;7.890;2023-08-31T09:12:28;7.97;;;1.80;;
21647;SDS011;10985;54.182;7.890;2023-08-31T09:15:00;7.65;;;1.58;;
21647;SDS011;10985;54.182;7.890;2023-08-31T09:17:36;6.28;;;1.80;;
21647;SDS011;10985;54.182;7.890;2023-08-31T09:20:03;9.30;;;1.27;;
21647;SDS011;10985;54.182;7.890;2023-08-31T09:22:29;7.43;;;1.90;;
21647;SDS011;10985;54.182;7.890;2023-08-31T09:24:55;3.97;;;1.63;;
21647;SDS011;10985;54.182;7.890;2023-08-31T09:27:20;6.68;;;1.85;;
21647;SDS011;10985;54.182;7.890;2023-08-31T09:29:48;7.70;;;1.88;;
21647;SDS011;10985;54.182;7.890;2023-08-31T09:32:17;7.93;;;1.75;;
21647;SDS011;10985;54.182;7.890;2023-08-31T09:34:43;5.85;;;1.73;;
21647;SDS011;10985;54.182;7.890;2023-08-31T09:37:08;5.82;;;1.90;;
21647;SDS011;10985;54.182;7.890;2023-08-31T09:39:38;2.15;;;1.30;;
21647;SDS011;10985;54.182;7.890;2023-08-31T09:42:04;5.47;;;1.60;;
21647;SDS011;10985;54.182;7.890;2023-08-31T09:44:30;8.07;;;1.50;;
21647;SDS011;10985;54.182;7.890;2023-08-31T09:46:56;6.70;;;1.75;;
21647;SDS011;10985;54.182;7.890;2023-08-31T09:49:22;2.58;;;1.50;;
21647;SDS011;10985;54.182;7.890;2023-08-31T09:51:49;2.45;;;1.50;;
21647;SDS011;10985;54.182;7.890;2023-08-31T09:54:16;3.22;;;1.40;;
21647;SDS011;10985;54.182;7.890;2023-08-31T09:56:44;8.73;;;1.58;;
21647;SDS011;10985;54.182;7.890;2023-08-31T09:59:11;5.50;;;2.08;;
21647;SDS011;10985;54.182;7.890;2023-08-31T10:01:41;3.10;;;1.33;;
21647;SDS011;10985;54.182;7.890;2023-08-31T10:04:09;3.28;;;1.27;;
21647;SDS011;10985;54.182;7.890;2023-08-31T10:06:35;1.40;;;1.30;;
21647;SDS011;10985;54.182;7.890;2023-08-31T10:09:06;3.35;;;1.33;;
21647;SDS011;10985;54.182;7.890;2023-08-31T10:11:34;2.92;;;1.50;;
21647;SDS011;10985;54.182;7.890;2023-08-31T10:14:01;5.97;;;1.95;;
21647;SDS011;10985;54.182;7.890;2023-08-31T10:16:28;2.92;;;1.60;;
21647;SDS011;10985;54.182;7.890;2023-08-31T10:18:55;5.32;;;1.80;;
21647;SDS011;10985;54.182;7.890;2023-08-31T10:21:21;5.97;;;1.40;;
21647;SDS011;10985;54.182;7.890;2023-08-31T10:23:47;2.67;;;1.42;;
21647;SDS011;10985;54.182;7.890;2023-08-31T10:26:22;2.92;;;1.60;;
21647;SDS011;10985;54.182;7.890;2023-08-31T10:28:52;2.00;;;1.52;;
21647;SDS011;10985;54.182;7.890;2023-08-31T10:31:18;4.82;;;1.33;;
21647;SDS011;10985;54.182;7.890;2023-08-31T10:33:54;2.95;;;1.58;;
21647;SDS011;10985;54.182;7.890;2023-08-31T10:36:22;8.65;;;1.80;;
21647;SDS011;10985;54.182;7.890;2023-08-31T10:39:04;4.32;;;1.70;;
21647;SDS011;10985;54.182;7.890;2023-08-31T10:41:32;3.58;;;1.42;;
21647;SDS011;10985;54.182;7.890;2023-08-31T10:43:59;5.97;;;1.80;;
21647;SDS011;10985;54.182;7.890;2023-08-31T10:48:58;3.47;;;1.60;;
21647;SDS011;10985;54.182;7.890;2023-08-31T10:51:31;2.95;;;1.40;;
21647;SDS011;10985;54.182;7.890;2023-08-31T10:54:06;5.95;;;1.90;;
21647;SDS011;10985;54.182;7.890;2023-08-31T10:56:54;11.30;;;2.13;;
21647;SDS011;10985;54.182;7.890;2023-08-31T10:59:26;6.22;;;1.60;;
21647;SDS011;10985;54.182;7.890;2023-08-31T11:02:05;4.45;;;1.85;;
21647;SDS011;10985;54.182;7.890;2023-08-31T11:04:39;4.50;;;1.30;;
21647;SDS011;10985;54.182;7.890;2023-08-31T11:07:18;2.70;;;1.50;;
21647;SDS011;10985;54.182;7.890;2023-08-31T11:09:45;3.42;;;1.60;;
21647;SDS011;10985;54.182;7.890;2023-08-31T11:12:11;3.58;;;1.40;;
21647;SDS011;10985;54.182;7.890;2023-08-31T11:14:38;5.18;;;1.42;;
21647;SDS011;10985;54.182;7.890;2023-08-31T11:17:04;8.15;;;1.40;;
21647;SDS011;10985;54.182;7.890;2023-08-31T11:19:30;6.65;;;1.50;;
21647;SDS011;10985;54.182;7.890;2023-08-31T11:21:57;7.20;;;2.00;;
21647;SDS011;10985;54.182;7.890;2023-08-31T11:24:24;4.28;;;1.50;;
21647;SDS011;10985;54.182;7.890;2023-08-31T11:26:50;3.03;;;1.52;;
21647;SDS011;10985;54.182;7.890;2023-08-31T11:29:16;2.97;;;1.45;;
21647;SDS011;10985;54.182;7.890;2023-08-31T11:31:42;3.22;;;1.58;;
21647;SDS011;10985;54.182;7.890;2023-08-31T11:34:14;2.28;;;1.50;;
21647;SDS011;10985;54.182;7.890;2023-08-31T11:36:44;4.47;;;1.23;;
21647;SDS011;10985;54.182;7.890;2023-08-31T11:39:11;9.88;;;1.40;;
21647;SDS011;10985;54.182;7.890;2023-08-31T11:41:37;1.90;;;1.23;;
21647;SDS011;10985;54.182;7.890;2023-08-31T11:44:10;6.38;;;1.80;;
21647;SDS011;10985;54.182;7.890;2023-08-31T11:46:37;3.40;;;1.35;;
21647;SDS011;10985;54.182;7.890;2023-08-31T11:49:05;4.03;;;2.00;;
21647;SDS011;10985;54.182;7.890;2023-08-31T11:51:32;6.00;;;1.40;;
21647;SDS011;10985;54.182;7.890;2023-08-31T11:54:00;4.25;;;1.67;;
21647;SDS011;10985;54.182;7.890;2023-08-31T11:56:27;3.72;;;1.48;;
21647;SDS011;10985;54.182;7.890;2023-08-31T11:59:04;3.90;;;1.15;;
21647;SDS011;10985;54.182;7.890;2023-08-31T12:01:33;3.40;;;1.40;;
21647;SDS011;10985;54.182;7.890;2023-08-31T12:04:09;5.90;;;1.38;;
21647;SDS011;10985;54.182;7.890;2023-08-31T12:06:35;2.58;;;1.33;;
21647;SDS011;10985;54.182;7.890;2023-08-31T12:09:01;7.47;;;1.98;;
21647;SDS011;10985;54.182;7.890;2023-08-31T12:11:26;3.63;;;1.40;;
21647;SDS011;10985;54.182;7.890;2023-08-31T12:13:52;2.58;;;1.05;;
21647;SDS011;10985;54.182;7.890;2023-08-31T12:16:17;3.95;;;1.20;;
21647;SDS011;10985;54.182;7.890;2023-08-31T12:18:43;5.95;;;2.00;;
21647;SDS011;10985;54.182;7.890;2023-08-31T12:21:08;7.38;;;2.00;;
21647;SDS011;10985;54.182;7.890;2023-08-31T12:23:34;6.57;;;1.90;;
21647;SDS011;10985;54.182;7.890;2023-08-31T12:26:00;8.05;;;1.95;;
21647;SDS011;10985;54.182;7.890;2023-08-31T12:28:26;5.63;;;1.58;;
21647;SDS011;10985;54.182;7.890;2023-08-31T12:30:52;2.00;;;1.50;;
21647;SDS011;10985;54.182;7.890;2023-08-31T12:33:19;5.95;;;1.30;;
21647;SDS011;10985;54.182;7.890;2023-08-31T12:35:45;4.40;;;1.38;;
21647;SDS011;10985;54.182;7.890;2023-08-31T12:38:11;4.25;;;1.75;;
21647;SDS011;10985;54.182;7.890;2023-08-31T12:40:37;3.50;;;1.40;;
21647;SDS011;10985;54.182;7.890;2023-08-31T12:43:03;4.30;;;1.10;;
21647;SDS011;10985;54.182;7.890;2023-08-31T12:45:29;3.97;;;1.27;;
21647;SDS011;10985;54.182;7.890;2023-08-31T12:47:55;3.85;;;1.20;;
21647;SDS011;10985;54.182;7.890;2023-08-31T12:50:21;2.45;;;1.30;;
21647;SDS011;10985;54.182;7.890;2023-08-31T12:52:46;2.65;;;1.33;;
21647;SDS011;10985;54.182;7.890;2023-08-31T12:55:12;3.05;;;1.30;;
21647;SDS011;10985;54.182;7.890;2023-08-31T12:57:39;2.35;;;1.50;;
21647;SDS011;10985;54.182;7.890;2023-08-31T13:00:06;4.13;;;1.60;;
21647;SDS011;10985;54.182;7.890;2023-08-31T13:02:38;2.00;;;0.98;;
21647;SDS011;10985;54.182;7.890;2023-08-31T13:05:04;5.80;;;1.42;;
21647;SDS011;10985;54.182;7.890;2023-08-31T13:07:30;2.70;;;1.27;;
21647;SDS011;10985;54.182;7.890;2023-08-31T13:09:57;3.45;;;1.40;;
21647;SDS011;10985;54.182;7.890;2023-08-31T13:12:25;2.70;;;1.50;;
21647;SDS011;10985;54.182;7.890;2023-08-31T13:14:50;5.93;;;1.40;;
21647;SDS011;10985;54.182;7.890;2023-08-31T13:17:16;4.10;;;1.23;;
21647;SDS011;10985;54.182;7.890;2023-08-31T13:19:41;4.05;;;1.60;;
21647;SDS011;10985;54.182;7.890;2023-08-31T13:22:07;5.18;;;1.67;;
21647;SDS011;10985;54.182;7.890;2023-08-31T13:24:32;5.10;;;1.77;;
21647;SDS011;10985;54.182;7.890;2023-08-31T13:26:58;3.45;;;1.42;;
21647;SDS011;10985;54.182;7.890;2023-08-31T13:29:23;9.40;;;1.60;;
21647;SDS011;10985;54.182;7.890;2023-08-31T13:31:49;4.70;;;1.83;;
21647;SDS011;10985;54.182;7.890;2023-08-31T13:34:14;5.03;;;1.65;;
21647;SDS011;10985;54.182;7.890;2023-08-31T13:36:40;4.70;;;1.92;;
21647;SDS011;10985;54.182;7.890;2023-08-31T13:39:06;3.55;;;1.65;;
21647;SDS011;10985;54.182;7.890;2023-08-31T13:41:32;4.55;;;1.70;;
21647;SDS011;10985;54.182;7.890;2023-08-31T13:43:58;3.20;;;1.77;;
21647;SDS011;10985;54.182;7.890;2023-08-31T13:46:23;6.82;;;1.92;;
21647;SDS011;10985;54.182;7.890;2023-08-31T13:48:49;8.75;;;2.30;;
21647;SDS011;10985;54.182;7.890;2023-08-31T13:51:15;4.68;;;1.80;;
21647;SDS011;10985;54.182;7.890;2023-08-31T13:53:40;6.50;;;2.10;;
21647;SDS011;10985;54.182;7.890;2023-08-31T13:56:06;8.30;;;2.88;;
21647;SDS011;10985;54.182;7.890;2023-08-31T13:58:31;6.13;;;2.15;;
21647;SDS011;10985;54.182;7.890;2023-08-31T14:00:57;6.03;;;1.90;;
21647;SDS011;10985;54.182;7.890;2023-08-31T14:03:25;6.47;;;3.22;;
21647;SDS011;10985;54.182;7.890;2023-08-31T14:05:51;5.32;;;2.58;;
21647;SDS011;10985;54.182;7.890;2023-08-31T14:08:17;6.90;;;1.80;;
21647;SDS011;10985;54.182;7.890;2023-08-31T14:10:43;5.95;;;2.13;;
21647;SDS011;10985;54.182;7.890;2023-08-31T14:13:08;6.07;;;2.67;;
21647;SDS011;10985;54.182;7.890;2023-08-31T14:15:34;4.25;;;2.50;;
21647;SDS011;10985;54.182;7.890;2023-08-31T14:17:59;3.03;;;1.60;;
21647;SDS011;10985;54.182;7.890;2023-08-31T14:20:25;4.25;;;2.50;;
21647;SDS011;10985;54.182;7.890;2023-08-31T14:22:50;4.38;;;2.55;;
21647;SDS011;10985;54.182;7.890;2023-08-31T14:25:16;2.75;;;1.90;;
21647;SDS011;10985;54.182;7.890;2023-08-31T14:27:42;4.78;;;2.13;;
21647;SDS011;10985;54.182;7.890;2023-08-31T14:30:08;3.97;;;1.80;;
21647;SDS011;10985;54.182;7.890;2023-08-31T14:32:34;5.75;;;2.38;;
21647;SDS011;10985;54.182;7.890;2023-08-31T14:34:59;6.65;;;2.25;;
21647;SDS011;10985;54.182;7.890;2023-08-31T14:37:25;6.03;;;2.25;;
21647;SDS011;10985;54.182;7.890;2023-08-31T14:39:51;6.22;;;2.33;;
21647;SDS011;10985;54.182;7.890;2023-08-31T14:42:16;4.97;;;2.65;;
21647;SDS011;10985;54.182;7.890;2023-08-31T14:44:45;6.65;;;3.00;;
21647;SDS011;10985;54.182;7.890;2023-08-31T14:47:16;3.95;;;2.65;;